sensor_id;sensor_type;location;lat;lon;timestamp;P1;durP1;ratioP1;P2;durP2;ratioP2
22746;SDS011;11540;52.130;5.648;2022-08-19T00:02:23;10.13;;;9.18;;
22746;SDS011;11540;52.130;5.648;2022-08-19T00:04:48;10.65;;;9.65;;
22746;SDS011;11540;52.130;5.648;2022-08-19T00:07:17;11.75;;;10.73;;
22746;SDS011;11540;52.130;5.648;2022-08-19T00:09:43;11.82;;;10.57;;
22746;SDS011;11540;52.130;5.648;2022-08-19T00:12:09;10.80;;;9.90;;
22746;SDS011;11540;52.130;5.648;2022-08-19T00:14:35;12.60;;;11.32;;
22746;SDS011;11540;52.130;5.648;2022-08-19T00:17:03;12.35;;;11.15;;
22746;SDS011;11540;52.130;5.648;2022-08-19T00:19:30;12.25;;;10.60;;
22746;SDS011;11540;52.130;5.648;2022-08-19T00:21:55;9.98;;;8.80;;
22746;SDS011;11540;52.130;5.648;2022-08-19T00:24:21;10.20;;;9.27;;
22746;SDS011;11540;52.130;5.648;2022-08-19T00:26:47;12.32;;;10.07;;
22746;SDS011;11540;52.130;5.648;2022-08-19T00:29:15;11.55;;;9.93;;
22746;SDS011;11540;52.130;5.648;2022-08-19T00:31:42;11.75;;;10.52;;
22746;SDS011;11540;52.130;5.648;2022-08-19T00:34:09;11.23;;;10.23;;
22746;SDS011;11540;52.130;5.648;2022-08-19T00:36:36;11.90;;;10.45;;
22746;SDS011;11540;52.130;5.648;2022-08-19T00:39:02;10.15;;;9.10;;
22746;SDS011;11540;52.130;5.648;2022-08-19T00:41:28;9.15;;;8.25;;
22746;SDS011;11540;52.130;5.648;2022-08-19T00:46:36;11.68;;;10.48;;
22746;SDS011;11540;52.130;5.648;2022-08-19T00:49:06;12.15;;;10.98;;
22746;SDS011;11540;52.130;5.648;2022-08-19T00:51:39;10.52;;;9.63;;
22746;SDS011;11540;52.130;5.648;2022-08-19T00:54:05;11.70;;;10.52;;
22746;SDS011;11540;52.130;5.648;2022-08-19T00:56:31;8.38;;;7.53;;
22746;SDS011;11540;52.130;5.648;2022-08-19T00:58:58;9.93;;;9.00;;
22746;SDS011;11540;52.130;5.648;2022-08-19T01:01:26;11.38;;;9.52;;
22746;SDS011;11540;52.130;5.648;2022-08-19T01:03:52;11.35;;;9.88;;
22746;SDS011;11540;52.130;5.648;2022-08-19T01:06:18;11.52;;;10.43;;
22746;SDS011;11540;52.130;5.648;2022-08-19T01:08:43;10.45;;;9.30;;
22746;SDS011;11540;52.130;5.648;2022-08-19T01:11:09;4.97;;;4.57;;
22746;SDS011;11540;52.130;5.648;2022-08-19T01:13:35;7.50;;;5.40;;
22746;SDS011;11540;52.130;5.648;2022-08-19T01:16:05;7.18;;;5.07;;
22746;SDS011;11540;52.130;5.648;2022-08-19T01:18:35;6.60;;;5.88;;
22746;SDS011;11540;52.130;5.648;2022-08-19T01:21:26;5.43;;;4.93;;
22746;SDS011;11540;52.130;5.648;2022-08-19T01:24:02;6.90;;;6.20;;
22746;SDS011;11540;52.130;5.648;2022-08-19T01:26:28;8.52;;;7.72;;
22746;SDS011;11540;52.130;5.648;2022-08-19T01:28:55;6.75;;;6.15;;
22746;SDS011;11540;52.130;5.648;2022-08-19T01:31:24;8.05;;;7.18;;
22746;SDS011;11540;52.130;5.648;2022-08-19T01:33:51;8.20;;;7.40;;
22746;SDS011;11540;52.130;5.648;2022-08-19T01:36:22;8.27;;;7.45;;
22746;SDS011;11540;52.130;5.648;2022-08-19T01:38:51;9.57;;;7.47;;
22746;SDS011;11540;52.130;5.648;2022-08-19T01:41:17;4.10;;;3.80;;
22746;SDS011;11540;52.130;5.648;2022-08-19T01:46:09;6.70;;;5.80;;
22746;SDS011;11540;52.130;5.648;2022-08-19T01:48:36;7.75;;;6.65;;
22746;SDS011;11540;52.130;5.648;2022-08-19T01:51:03;7.22;;;6.53;;
22746;SDS011;11540;52.130;5.648;2022-08-19T01:53:29;9.85;;;8.95;;
22746;SDS011;11540;52.130;5.648;2022-08-19T01:55:55;10.05;;;8.45;;
22746;SDS011;11540;52.130;5.648;2022-08-19T01:58:22;4.15;;;3.65;;
22746;SDS011;11540;52.130;5.648;2022-08-19T02:00:51;1.95;;;1.80;;
22746;SDS011;11540;52.130;5.648;2022-08-19T02:03:16;4.18;;;3.80;;
22746;SDS011;11540;52.130;5.648;2022-08-19T02:05:43;5.40;;;4.30;;
22746;SDS011;11540;52.130;5.648;2022-08-19T02:08:09;6.38;;;5.72;;
22746;SDS011;11540;52.130;5.648;2022-08-19T02:10:38;6.25;;;5.75;;
22746;SDS011;11540;52.130;5.648;2022-08-19T02:13:05;7.68;;;6.97;;
22746;SDS011;11540;52.130;5.648;2022-08-19T02:15:31;6.43;;;5.82;;
22746;SDS011;11540;52.130;5.648;2022-08-19T02:17:57;7.45;;;6.72;;
22746;SDS011;11540;52.130;5.648;2022-08-19T02:20:23;6.45;;;5.63;;
22746;SDS011;11540;52.130;5.648;2022-08-19T02:22:48;6.93;;;6.32;;
22746;SDS011;11540;52.130;5.648;2022-08-19T02:25:14;6.68;;;5.68;;
22746;SDS011;11540;52.130;5.648;2022-08-19T02:27:41;6.15;;;5.63;;
22746;SDS011;11540;52.130;5.648;2022-08-19T02:30:08;6.10;;;5.60;;
22746;SDS011;11540;52.130;5.648;2022-08-19T02:32:36;5.93;;;5.43;;
22746;SDS011;11540;52.130;5.648;2022-08-19T02:35:02;5.82;;;5.22;;
22746;SDS011;11540;52.130;5.648;2022-08-19T02:37:28;5.78;;;5.28;;
22746;SDS011;11540;52.130;5.648;2022-08-19T02:40:12;6.85;;;5.22;;
22746;SDS011;11540;52.130;5.648;2022-08-19T02:42:38;4.47;;;4.07;;
22746;SDS011;11540;52.130;5.648;2022-08-19T02:45:05;5.40;;;4.82;;
22746;SDS011;11540;52.130;5.648;2022-08-19T02:47:32;6.82;;;5.90;;
22746;SDS011;11540;52.130;5.648;2022-08-19T02:50:00;5.88;;;5.18;;
22746;SDS011;11540;52.130;5.648;2022-08-19T02:52:26;6.47;;;5.93;;
22746;SDS011;11540;52.130;5.648;2022-08-19T02:54:52;7.13;;;6.43;;
22746;SDS011;11540;52.130;5.648;2022-08-19T02:57:17;6.38;;;5.65;;
22746;SDS011;11540;52.130;5.648;2022-08-19T02:59:43;8.35;;;6.10;;
22746;SDS011;11540;52.130;5.648;2022-08-19T03:02:08;2.20;;;2.00;;
22746;SDS011;11540;52.130;5.648;2022-08-19T03:04:34;1.80;;;1.70;;
22746;SDS011;11540;52.130;5.648;2022-08-19T03:06:59;2.63;;;2.42;;
22746;SDS011;11540;52.130;5.648;2022-08-19T03:09:25;3.40;;;2.50;;
22746;SDS011;11540;52.130;5.648;2022-08-19T03:11:50;3.55;;;3.22;;
22746;SDS011;11540;52.130;5.648;2022-08-19T03:14:16;4.50;;;3.30;;
22746;SDS011;11540;52.130;5.648;2022-08-19T03:16:46;9.00;;;6.82;;
22746;SDS011;11540;52.130;5.648;2022-08-19T03:19:15;8.32;;;6.28;;
22746;SDS011;11540;52.130;5.648;2022-08-19T03:21:42;9.43;;;7.95;;
22746;SDS011;11540;52.130;5.648;2022-08-19T03:24:09;8.93;;;8.02;;
22746;SDS011;11540;52.130;5.648;2022-08-19T03:26:40;9.02;;;8.13;;
22746;SDS011;11540;52.130;5.648;2022-08-19T03:29:06;8.00;;;7.20;;
22746;SDS011;11540;52.130;5.648;2022-08-19T03:31:35;8.95;;;7.63;;
22746;SDS011;11540;52.130;5.648;2022-08-19T03:34:02;9.00;;;7.93;;
22746;SDS011;11540;52.130;5.648;2022-08-19T03:36:28;9.32;;;8.35;;
22746;SDS011;11540;52.130;5.648;2022-08-19T03:38:57;7.63;;;6.90;;
22746;SDS011;11540;52.130;5.648;2022-08-19T03:41:25;13.63;;;8.02;;
22746;SDS011;11540;52.130;5.648;2022-08-19T03:43:53;7.95;;;7.18;;
22746;SDS011;11540;52.130;5.648;2022-08-19T03:46:20;11.50;;;7.70;;
22746;SDS011;11540;52.130;5.648;2022-08-19T03:48:48;11.40;;;7.80;;
22746;SDS011;11540;52.130;5.648;2022-08-19T03:51:32;10.73;;;9.63;;
22746;SDS011;11540;52.130;5.648;2022-08-19T03:54:03;11.38;;;10.18;;
22746;SDS011;11540;52.130;5.648;2022-08-19T03:56:34;10.30;;;9.17;;
22746;SDS011;11540;52.130;5.648;2022-08-19T03:59:01;9.32;;;8.30;;
22746;SDS011;11540;52.130;5.648;2022-08-19T04:01:28;9.43;;;8.52;;
22746;SDS011;11540;52.130;5.648;2022-08-19T04:03:57;9.55;;;8.25;;
22746;SDS011;11540;52.130;5.648;2022-08-19T04:06:26;8.02;;;7.10;;
22746;SDS011;11540;52.130;5.648;2022-08-19T04:08:55;8.82;;;7.93;;
22746;SDS011;11540;52.130;5.648;2022-08-19T04:11:24;9.70;;;8.73;;
22746;SDS011;11540;52.130;5.648;2022-08-19T04:13:52;12.30;;;8.70;;
22746;SDS011;11540;52.130;5.648;2022-08-19T04:16:19;10.30;;;9.23;;
22746;SDS011;11540;52.130;5.648;2022-08-19T04:18:46;11.50;;;8.77;;
22746;SDS011;11540;52.130;5.648;2022-08-19T04:21:16;9.52;;;8.50;;
22746;SDS011;11540;52.130;5.648;2022-08-19T04:23:44;11.48;;;8.32;;
22746;SDS011;11540;52.130;5.648;2022-08-19T04:26:14;9.73;;;8.55;;
22746;SDS011;11540;52.130;5.648;2022-08-19T04:28:45;10.77;;;9.03;;
22746;SDS011;11540;52.130;5.648;2022-08-19T04:31:15;9.98;;;8.98;;
22746;SDS011;11540;52.130;5.648;2022-08-19T04:33:44;11.40;;;9.68;;
22746;SDS011;11540;52.130;5.648;2022-08-19T04:36:20;12.45;;;10.40;;
22746;SDS011;11540;52.130;5.648;2022-08-19T04:38:47;14.55;;;10.80;;
22746;SDS011;11540;52.130;5.648;2022-08-19T04:41:13;13.10;;;11.70;;
22746;SDS011;11540;52.130;5.648;2022-08-19T04:44:02;15.15;;;11.77;;
22746;SDS011;11540;52.130;5.648;2022-08-19T04:46:28;16.63;;;12.10;;
22746;SDS011;11540;52.130;5.648;2022-08-19T04:48:55;11.82;;;10.63;;
22746;SDS011;11540;52.130;5.648;2022-08-19T04:51:21;15.95;;;10.95;;
22746;SDS011;11540;52.130;5.648;2022-08-19T04:53:48;12.95;;;11.15;;
22746;SDS011;11540;52.130;5.648;2022-08-19T04:56:15;14.10;;;11.57;;
22746;SDS011;11540;52.130;5.648;2022-08-19T04:58:43;12.55;;;10.32;;
22746;SDS011;11540;52.130;5.648;2022-08-19T05:01:11;12.23;;;10.65;;
22746;SDS011;11540;52.130;5.648;2022-08-19T05:03:45;15.77;;;10.50;;
22746;SDS011;11540;52.130;5.648;2022-08-19T05:06:12;12.05;;;10.65;;
22746;SDS011;11540;52.130;5.648;2022-08-19T05:08:39;11.65;;;10.48;;
22746;SDS011;11540;52.130;5.648;2022-08-19T05:11:09;12.10;;;10.18;;
22746;SDS011;11540;52.130;5.648;2022-08-19T05:13:37;12.23;;;10.77;;
22746;SDS011;11540;52.130;5.648;2022-08-19T05:16:03;14.32;;;11.25;;
22746;SDS011;11540;52.130;5.648;2022-08-19T05:18:29;14.10;;;11.75;;
22746;SDS011;11540;52.130;5.648;2022-08-19T05:21:14;15.45;;;10.90;;
22746;SDS011;11540;52.130;5.648;2022-08-19T05:24:02;14.95;;;11.40;;
22746;SDS011;11540;52.130;5.648;2022-08-19T05:26:34;13.73;;;11.23;;
22746;SDS011;11540;52.130;5.648;2022-08-19T05:29:00;19.67;;;12.00;;
22746;SDS011;11540;52.130;5.648;2022-08-19T05:31:26;22.55;;;13.40;;
22746;SDS011;11540;52.130;5.648;2022-08-19T05:33:52;28.33;;;14.47;;
22746;SDS011;11540;52.130;5.648;2022-08-19T05:36:17;31.27;;;15.10;;
22746;SDS011;11540;52.130;5.648;2022-08-19T05:38:44;24.42;;;13.23;;
22746;SDS011;11540;52.130;5.648;2022-08-19T05:41:11;20.35;;;13.57;;
22746;SDS011;11540;52.130;5.648;2022-08-19T05:43:38;17.25;;;12.77;;
22746;SDS011;11540;52.130;5.648;2022-08-19T05:46:04;25.00;;;13.93;;
22746;SDS011;11540;52.130;5.648;2022-08-19T05:48:31;18.92;;;14.35;;
22746;SDS011;11540;52.130;5.648;2022-08-19T05:51:03;20.50;;;14.73;;
22746;SDS011;11540;52.130;5.648;2022-08-19T05:53:31;18.58;;;14.57;;
22746;SDS011;11540;52.130;5.648;2022-08-19T05:55:57;19.63;;;16.20;;
22746;SDS011;11540;52.130;5.648;2022-08-19T05:58:23;21.33;;;17.33;;
22746;SDS011;11540;52.130;5.648;2022-08-19T06:00:49;27.92;;;19.63;;
22746;SDS011;11540;52.130;5.648;2022-08-19T06:03:15;23.63;;;19.52;;
22746;SDS011;11540;52.130;5.648;2022-08-19T06:05:41;22.65;;;19.63;;
22746;SDS011;11540;52.130;5.648;2022-08-19T06:08:07;24.58;;;21.13;;
22746;SDS011;11540;52.130;5.648;2022-08-19T06:10:32;25.98;;;22.27;;
22746;SDS011;11540;52.130;5.648;2022-08-19T06:12:58;32.97;;;23.58;;
22746;SDS011;11540;52.130;5.648;2022-08-19T06:15:23;32.25;;;23.77;;
22746;SDS011;11540;52.130;5.648;2022-08-19T06:17:52;36.78;;;25.10;;
22746;SDS011;11540;52.130;5.648;2022-08-19T06:20:18;34.83;;;25.73;;
22746;SDS011;11540;52.130;5.648;2022-08-19T06:22:46;48.17;;;30.30;;
22746;SDS011;11540;52.130;5.648;2022-08-19T06:25:14;58.75;;;33.92;;
22746;SDS011;11540;52.130;5.648;2022-08-19T06:27:41;58.50;;;33.88;;
22746;SDS011;11540;52.130;5.648;2022-08-19T06:30:07;69.50;;;40.50;;
22746;SDS011;11540;52.130;5.648;2022-08-19T06:32:32;66.93;;;39.13;;
22746;SDS011;11540;52.130;5.648;2022-08-19T06:34:58;70.05;;;39.88;;
22746;SDS011;11540;52.130;5.648;2022-08-19T06:37:24;84.68;;;44.30;;
22746;SDS011;11540;52.130;5.648;2022-08-19T06:39:50;79.43;;;44.10;;
22746;SDS011;11540;52.130;5.648;2022-08-19T06:42:16;70.70;;;41.17;;
22746;SDS011;11540;52.130;5.648;2022-08-19T06:44:44;108.13;;;48.70;;
22746;SDS011;11540;52.130;5.648;2022-08-19T06:47:12;99.35;;;46.92;;
22746;SDS011;11540;52.130;5.648;2022-08-19T06:49:40;109.18;;;48.92;;
22746;SDS011;11540;52.130;5.648;2022-08-19T06:52:07;109.18;;;49.30;;
22746;SDS011;11540;52.130;5.648;2022-08-19T06:54:33;103.25;;;46.90;;
22746;SDS011;11540;52.130;5.648;2022-08-19T06:56:59;100.60;;;47.88;;
22746;SDS011;11540;52.130;5.648;2022-08-19T06:59:29;88.25;;;44.22;;
22746;SDS011;11540;52.130;5.648;2022-08-19T07:01:58;95.78;;;46.95;;
22746;SDS011;11540;52.130;5.648;2022-08-19T07:04:27;96.00;;;46.40;;
22746;SDS011;11540;52.130;5.648;2022-08-19T07:06:59;90.32;;;46.55;;
22746;SDS011;11540;52.130;5.648;2022-08-19T07:09:28;87.90;;;46.65;;
22746;SDS011;11540;52.130;5.648;2022-08-19T07:11:54;85.60;;;47.15;;
22746;SDS011;11540;52.130;5.648;2022-08-19T07:14:22;83.93;;;46.75;;
22746;SDS011;11540;52.130;5.648;2022-08-19T07:16:50;84.88;;;48.65;;
22746;SDS011;11540;52.130;5.648;2022-08-19T07:19:18;86.15;;;49.47;;
22746;SDS011;11540;52.130;5.648;2022-08-19T07:21:45;84.07;;;50.88;;
22746;SDS011;11540;52.130;5.648;2022-08-19T07:24:15;85.43;;;50.38;;
22746;SDS011;11540;52.130;5.648;2022-08-19T07:26:41;83.97;;;52.40;;
22746;SDS011;11540;52.130;5.648;2022-08-19T07:29:08;87.68;;;52.88;;
22746;SDS011;11540;52.130;5.648;2022-08-19T07:31:35;84.97;;;55.15;;
22746;SDS011;11540;52.130;5.648;2022-08-19T07:34:02;88.28;;;52.47;;
22746;SDS011;11540;52.130;5.648;2022-08-19T07:36:33;85.22;;;51.45;;
22746;SDS011;11540;52.130;5.648;2022-08-19T07:39:02;85.65;;;50.78;;
22746;SDS011;11540;52.130;5.648;2022-08-19T07:41:30;85.13;;;49.20;;
22746;SDS011;11540;52.130;5.648;2022-08-19T07:43:57;87.05;;;51.05;;
22746;SDS011;11540;52.130;5.648;2022-08-19T07:46:28;87.43;;;48.50;;
22746;SDS011;11540;52.130;5.648;2022-08-19T07:48:57;78.95;;;46.42;;
22746;SDS011;11540;52.130;5.648;2022-08-19T07:51:23;85.97;;;48.17;;
22746;SDS011;11540;52.130;5.648;2022-08-19T07:53:48;82.28;;;46.28;;
22746;SDS011;11540;52.130;5.648;2022-08-19T07:56:16;92.82;;;50.28;;
22746;SDS011;11540;52.130;5.648;2022-08-19T07:58:43;92.40;;;51.83;;
22746;SDS011;11540;52.130;5.648;2022-08-19T08:01:14;85.85;;;49.25;;
22746;SDS011;11540;52.130;5.648;2022-08-19T08:03:41;83.18;;;48.75;;
22746;SDS011;11540;52.130;5.648;2022-08-19T08:06:25;84.88;;;49.67;;
22746;SDS011;11540;52.130;5.648;2022-08-19T08:09:10;80.63;;;50.70;;
22746;SDS011;11540;52.130;5.648;2022-08-19T08:11:37;81.93;;;50.15;;
22746;SDS011;11540;52.130;5.648;2022-08-19T08:14:04;81.47;;;50.65;;
22746;SDS011;11540;52.130;5.648;2022-08-19T08:16:30;79.07;;;51.53;;
22746;SDS011;11540;52.130;5.648;2022-08-19T08:18:57;77.07;;;48.80;;
22746;SDS011;11540;52.130;5.648;2022-08-19T08:21:24;76.88;;;50.15;;
22746;SDS011;11540;52.130;5.648;2022-08-19T08:23:49;74.13;;;48.08;;
22746;SDS011;11540;52.130;5.648;2022-08-19T08:26:16;68.47;;;47.08;;
22746;SDS011;11540;52.130;5.648;2022-08-19T08:28:42;72.15;;;47.88;;
22746;SDS011;11540;52.130;5.648;2022-08-19T08:31:07;74.57;;;46.85;;
22746;SDS011;11540;52.130;5.648;2022-08-19T08:33:34;69.80;;;43.63;;
22746;SDS011;11540;52.130;5.648;2022-08-19T08:35:59;67.20;;;42.95;;
22746;SDS011;11540;52.130;5.648;2022-08-19T08:38:26;70.15;;;44.05;;
22746;SDS011;11540;52.130;5.648;2022-08-19T08:40:55;68.25;;;42.17;;
22746;SDS011;11540;52.130;5.648;2022-08-19T08:43:38;59.63;;;38.83;;
22746;SDS011;11540;52.130;5.648;2022-08-19T08:46:10;65.55;;;39.47;;
22746;SDS011;11540;52.130;5.648;2022-08-19T08:51:27;55.63;;;37.28;;
22746;SDS011;11540;52.130;5.648;2022-08-19T08:53:58;53.92;;;35.60;;
22746;SDS011;11540;52.130;5.648;2022-08-19T08:56:24;49.00;;;34.38;;
22746;SDS011;11540;52.130;5.648;2022-08-19T08:58:58;52.95;;;36.05;;
22746;SDS011;11540;52.130;5.648;2022-08-19T09:01:35;54.00;;;36.20;;
22746;SDS011;11540;52.130;5.648;2022-08-19T09:04:05;53.22;;;35.05;;
22746;SDS011;11540;52.130;5.648;2022-08-19T09:06:35;52.95;;;35.28;;
22746;SDS011;11540;52.130;5.648;2022-08-19T09:09:09;57.30;;;36.97;;
22746;SDS011;11540;52.130;5.648;2022-08-19T09:17:06;47.35;;;33.50;;
22746;SDS011;11540;52.130;5.648;2022-08-19T09:19:33;45.88;;;32.80;;
22746;SDS011;11540;52.130;5.648;2022-08-19T09:22:13;46.15;;;33.35;;
22746;SDS011;11540;52.130;5.648;2022-08-19T09:24:39;39.70;;;31.10;;
22746;SDS011;11540;52.130;5.648;2022-08-19T09:27:05;43.65;;;31.83;;
22746;SDS011;11540;52.130;5.648;2022-08-19T09:29:31;47.60;;;31.90;;
22746;SDS011;11540;52.130;5.648;2022-08-19T09:31:56;46.15;;;31.20;;
22746;SDS011;11540;52.130;5.648;2022-08-19T09:34:22;41.10;;;30.25;;
22746;SDS011;11540;52.130;5.648;2022-08-19T09:36:48;45.00;;;32.00;;
22746;SDS011;11540;52.130;5.648;2022-08-19T09:39:17;42.50;;;32.08;;
22746;SDS011;11540;52.130;5.648;2022-08-19T09:41:43;43.22;;;30.98;;
22746;SDS011;11540;52.130;5.648;2022-08-19T09:44:09;46.22;;;32.00;;
22746;SDS011;11540;52.130;5.648;2022-08-19T09:46:36;44.85;;;32.28;;
22746;SDS011;11540;52.130;5.648;2022-08-19T09:49:02;53.08;;;36.05;;
22746;SDS011;11540;52.130;5.648;2022-08-19T09:51:29;47.70;;;33.60;;
22746;SDS011;11540;52.130;5.648;2022-08-19T09:53:58;43.92;;;32.80;;
22746;SDS011;11540;52.130;5.648;2022-08-19T09:56:25;47.05;;;32.97;;
22746;SDS011;11540;52.130;5.648;2022-08-19T09:58:50;43.58;;;31.23;;
22746;SDS011;11540;52.130;5.648;2022-08-19T10:01:17;35.75;;;27.20;;
22746;SDS011;11540;52.130;5.648;2022-08-19T10:03:46;36.58;;;26.83;;
22746;SDS011;11540;52.130;5.648;2022-08-19T10:06:14;37.80;;;27.63;;
22746;SDS011;11540;52.130;5.648;2022-08-19T10:08:40;41.90;;;28.38;;
22746;SDS011;11540;52.130;5.648;2022-08-19T10:11:06;31.05;;;23.35;;
22746;SDS011;11540;52.130;5.648;2022-08-19T10:13:31;32.45;;;24.02;;
22746;SDS011;11540;52.130;5.648;2022-08-19T10:16:04;30.20;;;22.70;;
22746;SDS011;11540;52.130;5.648;2022-08-19T10:18:32;33.40;;;23.55;;
22746;SDS011;11540;52.130;5.648;2022-08-19T10:21:11;25.60;;;20.00;;
22746;SDS011;11540;52.130;5.648;2022-08-19T10:23:40;28.50;;;20.90;;
22746;SDS011;11540;52.130;5.648;2022-08-19T10:26:10;30.98;;;21.75;;
22746;SDS011;11540;52.130;5.648;2022-08-19T10:28:37;32.95;;;22.08;;
22746;SDS011;11540;52.130;5.648;2022-08-19T10:31:04;27.52;;;22.13;;
22746;SDS011;11540;52.130;5.648;2022-08-19T10:33:31;27.23;;;22.15;;
22746;SDS011;11540;52.130;5.648;2022-08-19T10:36:03;28.55;;;20.45;;
22746;SDS011;11540;52.130;5.648;2022-08-19T10:38:35;31.52;;;22.08;;
22746;SDS011;11540;52.130;5.648;2022-08-19T10:41:12;27.77;;;20.85;;
22746;SDS011;11540;52.130;5.648;2022-08-19T10:43:40;31.40;;;21.15;;
22746;SDS011;11540;52.130;5.648;2022-08-19T10:46:07;28.45;;;20.30;;
22746;SDS011;11540;52.130;5.648;2022-08-19T10:48:35;26.25;;;18.88;;
22746;SDS011;11540;52.130;5.648;2022-08-19T10:51:01;26.92;;;20.98;;
22746;SDS011;11540;52.130;5.648;2022-08-19T10:53:46;30.05;;;21.98;;
22746;SDS011;11540;52.130;5.648;2022-08-19T10:56:12;26.02;;;19.80;;
22746;SDS011;11540;52.130;5.648;2022-08-19T10:58:56;25.00;;;19.38;;
22746;SDS011;11540;52.130;5.648;2022-08-19T11:01:23;22.88;;;18.42;;
22746;SDS011;11540;52.130;5.648;2022-08-19T11:03:49;22.98;;;19.45;;
22746;SDS011;11540;52.130;5.648;2022-08-19T11:06:15;25.85;;;19.38;;
22746;SDS011;11540;52.130;5.648;2022-08-19T11:08:41;24.75;;;18.48;;
22746;SDS011;11540;52.130;5.648;2022-08-19T11:16:05;26.38;;;21.90;;
22746;SDS011;11540;52.130;5.648;2022-08-19T11:18:33;26.77;;;22.45;;
22746;SDS011;11540;52.130;5.648;2022-08-19T11:21:07;27.17;;;20.77;;
22746;SDS011;11540;52.130;5.648;2022-08-19T11:23:37;29.43;;;22.17;;
22746;SDS011;11540;52.130;5.648;2022-08-19T11:28:28;24.73;;;19.85;;
22746;SDS011;11540;52.130;5.648;2022-08-19T16:20:03;15.95;;;14.35;;
22746;SDS011;11540;52.130;5.648;2022-08-19T16:22:32;14.77;;;13.27;;
22746;SDS011;11540;52.130;5.648;2022-08-19T16:24:58;14.25;;;12.40;;
22746;SDS011;11540;52.130;5.648;2022-08-19T16:27:24;15.82;;;13.90;;
22746;SDS011;11540;52.130;5.648;2022-08-19T16:29:50;13.10;;;11.80;;
22746;SDS011;11540;52.130;5.648;2022-08-19T16:32:16;14.75;;;13.25;;
22746;SDS011;11540;52.130;5.648;2022-08-19T16:34:43;14.77;;;13.23;;
22746;SDS011;11540;52.130;5.648;2022-08-19T16:37:10;12.73;;;11.50;;
22746;SDS011;11540;52.130;5.648;2022-08-19T16:39:36;14.48;;;12.98;;
22746;SDS011;11540;52.130;5.648;2022-08-19T16:42:02;13.93;;;12.18;;
22746;SDS011;11540;52.130;5.648;2022-08-19T16:44:29;14.13;;;12.73;;
22746;SDS011;11540;52.130;5.648;2022-08-19T16:46:55;15.88;;;13.40;;
22746;SDS011;11540;52.130;5.648;2022-08-19T16:49:21;14.07;;;12.50;;
22746;SDS011;11540;52.130;5.648;2022-08-19T16:51:49;16.55;;;14.20;;
22746;SDS011;11540;52.130;5.648;2022-08-19T16:54:15;16.38;;;14.68;;
22746;SDS011;11540;52.130;5.648;2022-08-19T16:56:42;16.73;;;14.77;;
22746;SDS011;11540;52.130;5.648;2022-08-19T16:59:07;15.13;;;13.52;;
22746;SDS011;11540;52.130;5.648;2022-08-19T17:01:33;16.60;;;14.60;;
22746;SDS011;11540;52.130;5.648;2022-08-19T17:03:59;19.48;;;15.63;;
22746;SDS011;11540;52.130;5.648;2022-08-19T17:06:25;18.40;;;15.23;;
22746;SDS011;11540;52.130;5.648;2022-08-19T17:08:54;16.65;;;14.82;;
22746;SDS011;11540;52.130;5.648;2022-08-19T17:11:23;18.98;;;16.25;;
22746;SDS011;11540;52.130;5.648;2022-08-19T17:13:50;17.50;;;15.63;;
22746;SDS011;11540;52.130;5.648;2022-08-19T17:16:17;21.55;;;16.77;;
22746;SDS011;11540;52.130;5.648;2022-08-19T17:18:46;17.52;;;15.45;;
22746;SDS011;11540;52.130;5.648;2022-08-19T17:21:16;17.50;;;14.32;;
22746;SDS011;11540;52.130;5.648;2022-08-19T17:23:46;21.08;;;17.13;;
22746;SDS011;11540;52.130;5.648;2022-08-19T17:26:13;20.63;;;16.67;;
22746;SDS011;11540;52.130;5.648;2022-08-19T17:28:40;22.98;;;17.15;;
22746;SDS011;11540;52.130;5.648;2022-08-19T17:31:06;16.70;;;13.38;;
22746;SDS011;11540;52.130;5.648;2022-08-19T17:33:32;14.63;;;11.77;;
22746;SDS011;11540;52.130;5.648;2022-08-19T17:35:58;14.40;;;11.13;;
22746;SDS011;11540;52.130;5.648;2022-08-19T17:38:24;13.63;;;10.85;;
22746;SDS011;11540;52.130;5.648;2022-08-19T17:40:50;15.20;;;11.68;;
22746;SDS011;11540;52.130;5.648;2022-08-19T17:43:18;15.88;;;12.40;;
22746;SDS011;11540;52.130;5.648;2022-08-19T17:45:44;17.98;;;13.02;;
22746;SDS011;11540;52.130;5.648;2022-08-19T17:48:10;17.52;;;13.60;;
22746;SDS011;11540;52.130;5.648;2022-08-19T17:50:36;20.17;;;13.95;;
22746;SDS011;11540;52.130;5.648;2022-08-19T17:53:03;16.92;;;13.48;;
22746;SDS011;11540;52.130;5.648;2022-08-19T17:55:30;17.58;;;14.13;;
22746;SDS011;11540;52.130;5.648;2022-08-19T17:57:58;22.95;;;15.35;;
22746;SDS011;11540;52.130;5.648;2022-08-19T18:00:23;18.88;;;14.32;;
22746;SDS011;11540;52.130;5.648;2022-08-19T18:02:51;19.77;;;15.20;;
22746;SDS011;11540;52.130;5.648;2022-08-19T18:05:19;24.52;;;15.40;;
22746;SDS011;11540;52.130;5.648;2022-08-19T18:07:47;22.60;;;14.43;;
22746;SDS011;11540;52.130;5.648;2022-08-19T18:10:16;22.58;;;15.75;;
22746;SDS011;11540;52.130;5.648;2022-08-19T18:12:43;19.58;;;14.38;;
22746;SDS011;11540;52.130;5.648;2022-08-19T18:15:09;23.70;;;16.25;;
22746;SDS011;11540;52.130;5.648;2022-08-19T18:17:35;23.27;;;15.75;;
22746;SDS011;11540;52.130;5.648;2022-08-19T18:20:02;23.85;;;16.00;;
22746;SDS011;11540;52.130;5.648;2022-08-19T18:22:34;22.88;;;15.88;;
22746;SDS011;11540;52.130;5.648;2022-08-19T18:25:07;24.08;;;16.77;;
22746;SDS011;11540;52.130;5.648;2022-08-19T18:27:35;29.52;;;16.33;;
22746;SDS011;11540;52.130;5.648;2022-08-19T18:30:00;23.85;;;16.40;;
22746;SDS011;11540;52.130;5.648;2022-08-19T18:32:28;20.73;;;14.30;;
22746;SDS011;11540;52.130;5.648;2022-08-19T18:35:08;23.35;;;15.88;;
22746;SDS011;11540;52.130;5.648;2022-08-19T18:37:39;22.05;;;14.82;;
22746;SDS011;11540;52.130;5.648;2022-08-19T18:40:07;20.83;;;15.55;;
22746;SDS011;11540;52.130;5.648;2022-08-19T18:42:52;22.30;;;16.98;;
22746;SDS011;11540;52.130;5.648;2022-08-19T18:45:37;23.75;;;16.17;;
22746;SDS011;11540;52.130;5.648;2022-08-19T18:48:22;25.98;;;16.70;;
22746;SDS011;11540;52.130;5.648;2022-08-19T18:51:07;24.52;;;17.42;;
22746;SDS011;11540;52.130;5.648;2022-08-19T18:53:35;25.80;;;17.08;;
22746;SDS011;11540;52.130;5.648;2022-08-19T18:56:04;29.50;;;18.10;;
22746;SDS011;11540;52.130;5.648;2022-08-19T18:58:30;30.45;;;19.58;;
22746;SDS011;11540;52.130;5.648;2022-08-19T19:00:58;29.08;;;17.45;;
22746;SDS011;11540;52.130;5.648;2022-08-19T19:03:47;24.35;;;16.05;;
22746;SDS011;11540;52.130;5.648;2022-08-19T19:06:15;29.15;;;18.95;;
22746;SDS011;11540;52.130;5.648;2022-08-19T19:08:44;28.45;;;18.77;;
22746;SDS011;11540;52.130;5.648;2022-08-19T19:11:11;32.47;;;20.10;;
22746;SDS011;11540;52.130;5.648;2022-08-19T19:13:36;28.70;;;18.77;;
22746;SDS011;11540;52.130;5.648;2022-08-19T19:16:06;30.65;;;19.10;;
22746;SDS011;11540;52.130;5.648;2022-08-19T19:18:35;28.80;;;17.98;;
22746;SDS011;11540;52.130;5.648;2022-08-19T19:21:01;28.20;;;18.67;;
22746;SDS011;11540;52.130;5.648;2022-08-19T19:23:27;32.25;;;17.80;;
22746;SDS011;11540;52.130;5.648;2022-08-19T19:25:52;24.40;;;16.08;;
22746;SDS011;11540;52.130;5.648;2022-08-19T19:28:18;22.95;;;15.60;;
22746;SDS011;11540;52.130;5.648;2022-08-19T19:30:52;20.23;;;14.35;;
22746;SDS011;11540;52.130;5.648;2022-08-19T19:33:18;21.20;;;14.60;;
22746;SDS011;11540;52.130;5.648;2022-08-19T19:35:44;17.67;;;13.65;;
22746;SDS011;11540;52.130;5.648;2022-08-19T19:38:10;18.00;;;13.10;;
22746;SDS011;11540;52.130;5.648;2022-08-19T19:40:37;15.02;;;11.73;;
22746;SDS011;11540;52.130;5.648;2022-08-19T19:43:02;19.25;;;12.02;;
22746;SDS011;11540;52.130;5.648;2022-08-19T19:45:30;16.52;;;11.32;;